Terminal Aerodrome Forecast
Issued by NWS Blacksburg, VA

Home | Current Version | Previous Version | Text Only | Print | Product List | Glossary On
Versions: 1 2 3 4 5 6 7 8 9 10 11 12 13 14 15 16 17 18 19 20 21 22 23 24 25 26
000
FTUS41 KRNK 202330
TAFDAN
TAF
KDAN 202330Z 2100/2124 00000KT P6SM VCSH SCT070
     FM210300 00000KT P6SM SCT070
     FM211100 00000KT 4SM BR FEW030 SCT060
     FM211200 00000KT P6SM SCT050=

USA.gov is the U.S. government's official web portal to all federal, state and local government web resources and services.